Share

I Fadang, Northern Mariana Islands

Saipan International (PGSN) Elev 213 ft | 15.12 °N, 145.73 °E | Change Station

Current weather conditions updated 18 minutes ago

Mostly Cloudy
Mostly Cloudy
79 °F
Feels Like 79 °F
N
10
Wind Variable Wind from East
Sunrise 6:00 AM
Sunset 6:32 PM
Moon Waning Gibbous

Today is forecast to be Cooler than yesterday. Thunderstorms.

Pressure 29.86 in
Visibility 10.0 miles
Clouds Few 1200 ft
Scattered Clouds 2100 ft
Mostly Cloudy 5500 ft
Dew Point 76 °F
Humidity 90%
Rainfall 0.00 in
Snow Depth Not available.
UV 0 out of 16
Pollen Not available.
Air Quality Not available.
Flu Activity Not available.
METAR PGSN 181654Z 08009KT 10SM FEW012 SCT021 BKN055 26/24 A2979 RMK AO2 SLP110 T02610244 $

More Conditions Fewer Conditions

Pressure 29.86 in
Visibility 10.0 miles
Clouds Few 1200 ft
Scattered Clouds 2100 ft
Mostly Cloudy 5500 ft
Dew Point 76 °F
Humidity 90%
Rainfall 0.00 in
Snow Depth Not available.
UV 0 out of 16
Pollen Not available.
Air Quality Not available.
Flu Activity Not available.
METAR PGSN 181654Z 08009KT 10SM FEW012 SCT021 BKN055 26/24 A2979 RMK AO2 SLP110 T02610244 $

More Conditions Fewer Conditions

10-Day Weather Forecast

Almanac

Astronomy

Apr. 19, 2014 Rise Set
Actual Time 6:00 AM ChST 6:32 PM ChST
Civil Twilight 5:38 AM ChST 6:53 PM ChST
Nautical Twilight 5:13 AM ChST 7:19 PM ChST
Astronomical Twilight 4:47 AM ChST 7:45 PM ChST
Moon 10:16 PM ChST (4/19) 9:02 AM ChST (4/19)
Length of Visible Light 13h 15m
Length of Day
12h 31m
Tomorrow will be 0m 47s longer.
Waning Gibbous, 87% of the Moon is Illuminated
Apr 18
Waning Gibbous
Apr 22
Last Quarter
Apr 29
New
May 6
First Quarter
May 14
Full

Community

  • What's for Lunch?
    What's for Lunch?
  • SUNRISE THROUGH THE TREES.
    SUNRISE THROUGH THE TREES.
  • Dog Wood Blossoms
    Dog Wood Blossoms
  • Morning Light
    Morning Light
  • New Day
    New Day

WunderPhotos

Upload Photos

1,702,423 photos uploaded!

Nearby

Snow Depth

Not available.

Coastal Water Temperatures

Place Temperature
No Stations Reporting

Earthquake Activity

City Distance Mag. Time & Date
No recent earthquake activity has been reported nearby.
Minimum magnitude displayed is 2.5.

Nearby Weather Stations

Station Location Temp. Heat Index Dew Point Humidity Wind Precip. Elev Updated Type
Red Cross-Airport, Saipan 79.4 °F 85 °F 79 °F 100% East  at  6.0 mph 0.00 in / hr 215 ft 3:09 AM ChST Normal

Show More Stations Show Fewer Stations

What do you think?

We're not finished. Please let us know what you like, what you don't like, and what you are still missing.